Time;durP1;ratioP1;P1;durP2;ratioP2;P2;SDS_P1;SDS_P2;PMS_P1;PMS_P2;Temp;Humidity;BMP_temperature;BMP_pressure;BME280_temperature;BME280_humidity;BME280_pressure;Samples;Min_cycle;Max_cycle;Signal;HPM_P1;HPM_P2
2021/12/16 00:07:16;;;;;;;3.50;2.30;;;25.00;87.60;;;;;;5072849;28;20085;-54
2021/12/16 00:09:01;;;;;;;4.78;2.20;;;25.00;86.90;;;;;;5063749;28;20269;-59
2021/12/16 00:33:32;;;;;;;2.10;1.60;;;25.20;86.50;;;;;;5072890;28;20394;-58
2021/12/16 00:36:00;;;;;;;2.10;1.85;;;25.20;86.60;;;;;;5072386;28;20037;-57
2021/12/16 00:38:27;;;;;;;5.35;2.45;;;25.20;86.50;;;;;;5070841;28;20096;-56
2021/12/16 00:40:56;;;;;;;4.13;2.42;;;25.30;86.70;;;;;;5072703;28;20074;-55
2021/12/16 00:43:36;;;;;;;3.78;2.28;;;25.20;86.80;;;;;;5072687;28;20471;-55
2021/12/16 00:56:37;;;;;;;7.68;3.65;;;25.20;86.40;;;;;;5072641;28;20162;-58
2021/12/16 00:59:08;;;;;;;4.05;2.08;;;25.20;86.60;;;;;;5071671;28;20032;-57
2021/12/16 01:01:48;;;;;;;4.28;2.47;;;25.10;87.00;;;;;;5072189;28;20013;-60
2021/12/16 01:05:04;;;;;;;3.25;2.10;;;25.10;87.20;;;;;;5070488;28;20032;-57
2021/12/16 01:35:07;;;;;;;5.07;3.05;;;25.00;88.40;;;;;;5072296;28;20075;-58
2021/12/16 01:52:29;;;;;;;4.40;3.08;;;24.90;88.80;;;;;;5072961;28;20163;-59
2021/12/16 01:57:23;;;;;;;5.72;3.03;;;24.90;88.70;;;;;;5075200;28;20111;-57
2021/12/16 02:00:00;;;;;;;6.47;3.63;;;25.00;89.00;;;;;;5075924;28;20040;-58
2021/12/16 02:02:38;;;;;;;5.55;3.15;;;25.00;89.20;;;;;;5075682;28;20403;-64
2021/12/16 02:10:41;;;;;;;3.65;2.75;;;25.10;88.60;;;;;;5075742;28;20021;-55
2021/12/16 02:13:32;;;;;;;5.18;3.30;;;25.20;88.40;;;;;;5075670;28;20020;-59
2021/12/16 02:30:34;;;;;;;4.30;2.78;;;25.20;87.70;;;;;;5075346;28;20079;-54
2021/12/16 02:33:09;;;;;;;5.25;3.53;;;25.20;87.90;;;;;;5074675;28;20021;-56
2021/12/16 02:35:44;;;;;;;;;;;25.30;87.80;;;;;;5074888;28;20028;-59
2021/12/16 02:38:14;;;;;;;7.07;3.65;;;25.30;87.90;;;;;;5074159;28;20269;-56
2021/12/16 02:40:44;;;;;;;4.93;3.22;;;25.30;87.90;;;;;;5074824;28;20024;-61
2021/12/16 02:51:19;;;;;;;4.60;3.10;;;25.20;88.20;;;;;;5074355;28;20031;-57
2021/12/16 02:53:50;;;;;;;6.10;3.30;;;25.20;88.30;;;;;;5066230;28;20075;-61
2021/12/16 02:56:18;;;;;;;5.28;3.53;;;25.10;88.00;;;;;;5074468;28;20031;-63
2021/12/16 02:58:50;;;;;;;5.32;2.97;;;25.10;88.30;;;;;;5074241;28;20032;-58
2021/12/16 03:01:30;;;;;;;5.80;3.40;;;25.10;88.20;;;;;;5072995;28;20028;-53
2021/12/16 03:04:02;;;;;;;5.13;3.22;;;25.10;88.60;;;;;;5073657;28;20028;-58
2021/12/16 03:06:31;;;;;;;5.93;3.47;;;25.10;88.70;;;;;;5074220;28;20025;-61
2021/12/16 03:09:00;;;;;;;6.43;3.40;;;25.20;88.50;;;;;;5073916;28;20106;-58
2021/12/16 03:17:06;;;;;;;6.50;3.90;;;25.20;87.80;;;;;;5074060;28;20062;-60
2021/12/16 03:22:21;;;;;;;7.18;3.40;;;25.10;87.90;;;;;;5073691;28;20020;-57
2021/12/16 03:25:42;;;;;;;7.13;3.55;;;25.10;87.70;;;;;;5072706;28;20024;-59
2021/12/16 03:30:37;;;;;;;10.00;4.07;;;25.00;89.00;;;;;;5072420;28;20021;-59
2021/12/16 03:35:52;;;;;;;4.03;2.95;;;24.90;89.40;;;;;;5074076;28;20055;-59
2021/12/16 03:38:21;;;;;;;5.95;3.08;;;24.90;89.40;;;;;;5073529;28;20033;-59
2021/12/16 03:40:48;;;;;;;4.60;3.00;;;24.80;89.60;;;;;;5073358;28;20056;-59
2021/12/16 03:43:19;;;;;;;5.60;3.10;;;24.80;89.80;;;;;;5073293;28;20033;-59
2021/12/16 03:48:55;;;;;;;8.25;3.30;;;24.80;89.60;;;;;;5072977;28;20028;-55
2021/12/16 03:51:24;;;;;;;;;;;24.70;89.50;;;;;;5073912;28;20021;-57
2021/12/16 03:53:56;;;;;;;7.43;3.42;;;24.70;89.40;;;;;;5073168;28;20294;-55
2021/12/16 03:56:24;;;;;;;9.75;3.53;;;24.70;89.60;;;;;;5071307;28;20111;-58
2021/12/16 03:58:51;;;;;;;7.65;3.30;;;24.70;89.70;;;;;;5071577;28;20045;-58
2021/12/16 04:01:25;;;;;;;6.30;3.10;;;24.70;90.00;;;;;;5073176;28;20127;-59
2021/12/16 04:03:52;;;;;;;8.27;3.60;;;24.70;90.00;;;;;;5072631;28;20025;-56
2021/12/16 04:06:21;;;;;;;6.63;3.25;;;24.60;90.10;;;;;;5072921;28;20012;-60
2021/12/16 04:08:49;;;;;;;8.80;3.58;;;24.60;90.10;;;;;;5072199;28;20032;-54
2021/12/16 04:11:22;;;;;;;7.38;3.30;;;24.60;90.10;;;;;;5072236;28;20104;-58
2021/12/16 04:13:57;;;;;;;3.38;2.63;;;24.60;90.20;;;;;;5072168;28;20466;-52
2021/12/16 04:16:47;;;;;;;7.15;3.08;;;24.50;90.20;;;;;;5073134;28;20107;-59
2021/12/16 04:19:18;;;;;;;7.82;3.75;;;24.50;90.20;;;;;;5072835;28;20035;-57
2021/12/16 04:21:51;;;;;;;9.83;3.73;;;24.50;90.20;;;;;;5072767;28;20017;-61
2021/12/16 04:24:19;;;;;;;6.57;3.60;;;24.50;90.20;;;;;;5072342;28;20390;-51
2021/12/16 04:26:49;;;;;;;5.78;3.28;;;24.40;90.20;;;;;;5072796;28;20031;-58
2021/12/16 04:29:17;;;;;;;5.53;3.05;;;24.40;90.30;;;;;;5072548;28;20027;-56
2021/12/16 04:31:46;;;;;;;7.88;3.35;;;24.40;90.30;;;;;;5072372;28;20452;-54
2021/12/16 04:34:14;;;;;;;7.30;3.13;;;24.30;90.20;;;;;;5072370;28;20074;-56
2021/12/16 04:36:41;;;;;;;6.10;2.88;;;24.30;90.30;;;;;;5072145;28;20036;-57
2021/12/16 04:39:13;;;;;;;8.43;3.05;;;24.30;90.30;;;;;;5072352;28;20067;-60
2021/12/16 04:41:41;;;;;;;6.38;3.22;;;24.30;90.30;;;;;;5072509;28;20421;-60
2021/12/16 04:44:14;;;;;;;5.72;2.92;;;24.20;90.30;;;;;;5073089;28;20035;-60
2021/12/16 04:46:43;;;;;;;5.78;3.13;;;24.20;90.40;;;;;;5072634;28;20146;-53
2021/12/16 04:49:12;;;;;;;6.35;3.53;;;24.30;90.40;;;;;;5072030;28;20104;-55
2021/12/16 04:51:42;;;;;;;7.22;3.70;;;24.10;90.40;;;;;;5072457;28;20028;-56
2021/12/16 04:54:12;;;;;;;5.18;2.70;;;24.10;90.50;;;;;;5071866;28;20048;-58
2021/12/16 04:56:40;;;;;;;5.82;3.13;;;24.10;90.50;;;;;;5072493;28;20402;-56
2021/12/16 04:59:10;;;;;;;5.82;2.78;;;24.10;90.50;;;;;;5072142;28;20047;-59
2021/12/16 05:01:44;;;;;;;7.20;3.42;;;24.10;90.50;;;;;;5072355;28;20027;-61
2021/12/16 05:04:12;;;;;;;4.82;2.97;;;24.10;90.50;;;;;;5071857;28;20570;-57
2021/12/16 05:06:40;;;;;;;4.47;2.85;;;24.00;90.50;;;;;;5072466;28;20021;-55
2021/12/16 05:09:11;;;;;;;6.13;3.33;;;24.00;90.50;;;;;;5072450;28;20031;-58
2021/12/16 05:11:39;;;;;;;5.45;2.85;;;24.00;90.50;;;;;;5072078;28;20040;-55
2021/12/16 05:14:07;;;;;;;10.75;3.08;;;24.00;90.60;;;;;;5071823;28;20119;-52
2021/12/16 05:16:35;;;;;;;5.22;2.95;;;24.00;90.60;;;;;;5072179;28;20032;-54
2021/12/16 05:19:07;;;;;;;6.95;3.35;;;24.00;90.50;;;;;;5070802;28;20059;-62
2021/12/16 05:24:27;;;;;;;6.80;3.08;;;23.90;90.50;;;;;;5072214;28;20029;-55
2021/12/16 05:27:03;;;;;;;7.05;3.17;;;23.90;90.60;;;;;;5074784;28;20133;-60
2021/12/16 05:29:31;;;;;;;6.93;3.20;;;23.90;90.60;;;;;;5074769;28;20154;-53
2021/12/16 05:32:00;;;;;;;5.22;2.50;;;23.90;90.80;;;;;;5075539;28;20107;-56
2021/12/16 05:34:28;;;;;;;6.85;2.95;;;23.90;90.70;;;;;;5075730;28;20440;-53
2021/12/16 05:36:55;;;;;;;7.53;3.47;;;23.90;90.70;;;;;;5075822;28;20028;-54
2021/12/16 05:39:24;;;;;;;8.57;3.30;;;23.90;90.70;;;;;;5075951;28;20028;-61
2021/12/16 05:41:51;;;;;;;8.70;2.55;;;23.90;90.70;;;;;;5075984;28;20032;-59
2021/12/16 05:44:19;;;;;;;6.05;2.47;;;23.90;90.60;;;;;;5076086;28;20033;-57
2021/12/16 05:46:49;;;;;;;4.70;2.60;;;23.90;90.60;;;;;;5075584;28;20029;-52
2021/12/16 05:49:17;;;;;;;10.32;3.50;;;23.90;90.50;;;;;;5075679;28;20031;-59
2021/12/16 05:51:48;;;;;;;6.93;2.92;;;23.90;90.40;;;;;;5075264;28;20486;-61
2021/12/16 05:54:18;;;;;;;5.83;2.50;;;23.90;90.40;;;;;;5075494;28;20490;-56
2021/12/16 05:56:46;;;;;;;8.80;3.25;;;23.90;90.40;;;;;;5075380;28;20654;-54
2021/12/16 05:59:14;;;;;;;5.13;2.78;;;23.90;90.40;;;;;;5075108;28;20067;-54
2021/12/16 06:01:42;;;;;;;4.93;2.60;;;23.90;90.50;;;;;;5075439;28;20100;-58
2021/12/16 06:04:10;;;;;;;4.85;2.30;;;23.90;90.40;;;;;;5075310;28;20024;-60
2021/12/16 06:06:38;;;;;;;10.48;3.38;;;23.90;90.30;;;;;;5075699;28;20025;-55
2021/12/16 06:09:08;;;;;;;10.55;3.55;;;23.90;90.30;;;;;;5074478;28;20025;-59
2021/12/16 06:11:40;;;;;;;6.43;2.85;;;23.90;90.30;;;;;;5075133;28;20463;-60
2021/12/16 06:14:18;;;;;;;9.07;2.92;;;23.90;90.20;;;;;;5074845;28;20098;-57
2021/12/16 06:22:40;;;;;;;5.32;2.10;;;23.80;90.30;;;;;;5074998;28;20107;-58
2021/12/16 06:28:05;;;;;;;5.50;2.72;;;23.80;90.20;;;;;;5074675;28;20038;-62
2021/12/16 06:30:36;;;;;;;8.13;2.70;;;23.80;90.20;;;;;;5074746;28;20032;-53
2021/12/16 06:33:06;;;;;;;8.23;3.00;;;23.80;90.20;;;;;;5074422;28;20033;-56
2021/12/16 06:35:34;;;;;;;4.22;2.13;;;23.70;90.20;;;;;;5074794;28;20336;-62
2021/12/16 06:38:02;;;;;;;4.93;2.08;;;23.70;90.20;;;;;;5073874;28;20029;-58
2021/12/16 06:40:30;;;;;;;4.22;2.30;;;23.70;90.20;;;;;;5074221;28;20447;-53
2021/12/16 06:42:59;;;;;;;7.47;2.85;;;23.70;90.20;;;;;;5074621;28;20078;-56
2021/12/16 06:45:31;;;;;;;5.45;2.60;;;23.70;90.20;;;;;;5074315;28;20104;-58
2021/12/16 06:48:05;;;;;;;;;;;23.70;90.00;;;;;;5074547;28;20035;-57
2021/12/16 06:53:29;;;;;;;6.93;2.88;;;23.70;90.10;;;;;;5074118;28;20048;-60
2021/12/16 07:01:30;;;;;;;9.82;2.78;;;23.60;90.10;;;;;;5073969;28;20467;-59
2021/12/16 07:03:49;;;;;;;7.68;2.40;;;23.60;90.00;;;;;;5073929;28;20368;-52
2021/12/16 07:06:21;;;;;;;;;;;23.60;89.90;;;;;;5074316;28;20546;-55
2021/12/16 07:08:49;;;;;;;;;;;23.60;90.00;;;;;;5074531;28;19908;-52
2021/12/16 07:11:17;;;;;;;8.18;2.67;;;23.60;90.00;;;;;;5073830;28;19995;-55
2021/12/16 07:13:55;;;;;;;3.70;2.40;;;23.60;89.80;;;;;;5074248;28;20078;-52
2021/12/16 07:16:25;;;;;;;5.65;2.15;;;23.60;90.00;;;;;;5073813;28;20029;-51
2021/12/16 07:18:54;;;;;;;5.00;2.90;;;23.50;90.00;;;;;;5073931;28;20376;-60
2021/12/16 07:21:23;;;;;;;7.70;2.47;;;23.50;90.00;;;;;;5073657;28;20332;-58
2021/12/16 07:23:51;;;;;;;6.80;2.72;;;23.50;89.90;;;;;;5073226;28;20028;-61
2021/12/16 07:26:18;;;;;;;5.40;2.17;;;23.50;89.60;;;;;;5073700;28;20506;-52
2021/12/16 07:28:46;;;;;;;6.35;2.72;;;23.50;89.90;;;;;;5073804;28;20103;-61
2021/12/16 07:31:15;;;;;;;7.47;3.15;;;23.50;90.00;;;;;;5073645;28;20166;-54
2021/12/16 07:33:42;;;;;;;5.80;2.13;;;23.50;90.30;;;;;;5073145;28;20024;-54
2021/12/16 07:36:10;;;;;;;4.53;2.10;;;23.50;90.10;;;;;;5073433;28;20108;-60
2021/12/16 07:38:38;;;;;;;4.78;2.10;;;23.40;90.10;;;;;;5073396;28;20086;-63
2021/12/16 07:41:05;;;;;;;7.40;2.65;;;23.40;89.70;;;;;;5073422;28;20036;-61
2021/12/16 07:46:18;;;;;;;6.57;2.65;;;23.40;90.00;;;;;;5073871;28;20027;-55
2021/12/16 07:48:45;;;;;;;6.93;3.05;;;23.40;90.00;;;;;;5072411;28;20032;-60
2021/12/16 07:51:13;;;;;;;9.90;2.63;;;23.40;89.40;;;;;;5072529;28;20021;-57
2021/12/16 07:53:41;;;;;;;5.70;2.40;;;23.40;88.70;;;;;;5072685;28;20040;-60
2021/12/16 07:56:10;;;;;;;8.23;2.75;;;23.40;87.60;;;;;;5073193;28;20039;-61
2021/12/16 07:58:38;;;;;;;8.25;2.90;;;23.50;88.50;;;;;;5073132;28;20029;-58
2021/12/16 08:01:06;;;;;;;9.27;2.75;;;23.50;88.40;;;;;;5072826;28;20039;-60
2021/12/16 08:03:36;;;;;;;7.72;2.70;;;23.50;87.60;;;;;;5072951;28;20041;-58
2021/12/16 08:06:08;;;;;;;15.02;3.00;;;23.50;88.00;;;;;;5072650;28;20115;-59
2021/12/16 08:08:36;;;;;;;21.77;3.28;;;23.50;88.40;;;;;;5073037;28;20063;-57
2021/12/16 08:11:06;;;;;;;15.07;3.13;;;23.50;88.40;;;;;;5071319;28;20052;-57
2021/12/16 08:13:34;;;;;;;11.13;2.80;;;23.60;88.10;;;;;;5072979;28;20383;-62
2021/12/16 08:16:02;;;;;;;13.50;3.08;;;23.60;88.50;;;;;;5072940;28;20021;-61
2021/12/16 08:18:31;;;;;;;19.45;2.95;;;23.60;88.90;;;;;;5072731;28;20111;-61
2021/12/16 08:20:59;;;;;;;13.38;2.65;;;23.60;88.80;;;;;;5072868;28;20031;-60
2021/12/16 08:23:27;;;;;;;5.68;2.50;;;23.60;89.50;;;;;;5072770;28;20028;-59
2021/12/16 08:25:54;;;;;;;13.80;3.20;;;23.60;88.70;;;;;;5071513;28;20024;-58
2021/12/16 08:28:23;;;;;;;11.57;2.83;;;23.60;89.10;;;;;;5072738;28;20103;-59
2021/12/16 08:30:52;;;;;;;10.65;3.20;;;23.70;89.90;;;;;;5071153;28;20025;-60
2021/12/16 08:33:21;;;;;;;10.32;3.10;;;23.70;90.20;;;;;;5072097;28;20029;-62
2021/12/16 08:35:52;;;;;;;10.13;2.75;;;23.70;90.40;;;;;;5072512;28;20092;-59
2021/12/16 08:38:23;;;;;;;9.15;2.90;;;23.70;90.40;;;;;;5072532;28;20033;-54
2021/12/16 08:40:53;;;;;;;11.55;2.97;;;23.70;90.70;;;;;;5072274;28;20077;-51
2021/12/16 08:43:21;;;;;;;13.63;3.83;;;23.70;91.30;;;;;;5072168;28;20187;-58
2021/12/16 08:45:49;;;;;;;10.50;3.75;;;23.70;91.20;;;;;;5072498;28;20032;-55
2021/12/16 08:48:16;;;;;;;17.13;3.30;;;23.70;91.00;;;;;;5072021;28;20115;-57
2021/12/16 08:50:48;;;;;;;6.40;2.80;;;23.70;90.90;;;;;;5072273;28;20051;-56
2021/12/16 08:53:19;;;;;;;15.15;3.13;;;23.70;90.90;;;;;;5072426;28;20402;-57
2021/12/16 08:55:48;;;;;;;13.68;3.03;;;23.70;90.60;;;;;;5072293;28;20024;-56
2021/12/16 08:58:16;;;;;;;7.13;2.83;;;23.70;90.80;;;;;;5070897;28;20032;-55
2021/12/16 09:00:54;;;;;;;7.95;3.70;;;23.70;91.30;;;;;;5076250;28;20034;-58
2021/12/16 09:03:22;;;;;;;11.35;2.95;;;23.70;90.90;;;;;;5078832;28;20108;-53
2021/12/16 09:05:49;;;;;;;11.52;3.38;;;23.70;90.90;;;;;;5079040;28;20479;-61
2021/12/16 09:08:17;;;;;;;16.10;4.10;;;23.60;90.80;;;;;;5078975;28;20461;-56
2021/12/16 09:10:44;;;;;;;13.02;3.22;;;23.60;90.30;;;;;;5079436;28;20051;-59
2021/12/16 09:13:15;;;;;;;19.40;4.18;;;23.60;90.50;;;;;;5079315;28;20535;-58
2021/12/16 09:15:49;;;;;;;10.15;3.45;;;23.60;90.50;;;;;;5079456;28;20040;-56
2021/12/16 09:18:20;;;;;;;15.50;3.70;;;23.60;90.70;;;;;;5079377;28;20066;-59
2021/12/16 09:20:48;;;;;;;10.05;2.67;;;23.50;90.10;;;;;;5079142;28;20043;-57
2021/12/16 09:23:16;;;;;;;17.27;3.67;;;23.50;90.30;;;;;;5079383;28;20096;-56
2021/12/16 09:25:46;;;;;;;6.35;2.88;;;23.50;89.60;;;;;;5079354;28;20036;-60
2021/12/16 09:28:15;;;;;;;5.57;2.83;;;23.50;89.60;;;;;;5078814;28;20382;-56
2021/12/16 09:30:43;;;;;;;7.43;2.72;;;23.50;89.80;;;;;;5079172;28;20467;-60
2021/12/16 09:33:15;;;;;;;6.82;3.20;;;23.40;89.50;;;;;;5079140;28;20029;-61
2021/12/16 09:35:46;;;;;;;5.90;2.50;;;23.40;89.40;;;;;;5078102;28;20028;-55
2021/12/16 09:38:15;;;;;;;7.63;2.77;;;23.40;89.40;;;;;;5078743;28;20036;-55
2021/12/16 09:40:50;;;;;;;10.10;3.17;;;23.40;89.20;;;;;;5078664;28;20616;-58
2021/12/16 09:43:21;;;;;;;9.05;2.63;;;23.40;89.00;;;;;;5079458;28;20028;-57
2021/12/16 09:45:48;;;;;;;7.20;2.58;;;23.30;88.90;;;;;;5077879;28;20017;-52
2021/12/16 09:48:16;;;;;;;8.38;2.78;;;23.40;89.30;;;;;;5077949;28;20032;-57
2021/12/16 09:50:44;;;;;;;6.97;2.42;;;23.30;89.40;;;;;;5078775;28;20017;-57
2021/12/16 09:53:12;;;;;;;6.75;2.67;;;23.30;89.40;;;;;;5078829;28;20044;-57
2021/12/16 09:55:40;;;;;;;8.77;2.80;;;23.30;89.60;;;;;;5078757;28;20436;-58
2021/12/16 09:58:07;;;;;;;8.32;2.75;;;23.20;89.60;;;;;;5078392;28;20028;-55
2021/12/16 10:00:36;;;;;;;7.15;2.72;;;23.20;89.50;;;;;;5078949;28;20109;-59
2021/12/16 10:03:05;;;;;;;10.05;2.38;;;23.20;89.50;;;;;;5078819;28;20089;-58
2021/12/16 10:05:34;;;;;;;10.73;2.88;;;23.20;89.50;;;;;;5078778;28;20486;-60
2021/12/16 10:08:04;;;;;;;12.40;2.75;;;23.20;89.40;;;;;;5078397;28;20029;-60
2021/12/16 10:10:33;;;;;;;6.55;2.75;;;23.10;89.60;;;;;;5078949;28;20024;-59
2021/12/16 10:13:03;;;;;;;7.40;2.70;;;23.10;89.30;;;;;;5075042;28;20048;-59
2021/12/16 10:18:05;;;;;;;6.85;2.92;;;23.10;89.50;;;;;;5073686;28;20032;-57
2021/12/16 10:20:39;;;;;;;9.38;2.45;;;23.10;89.50;;;;;;5075408;28;20383;-52
2021/12/16 10:23:12;;;;;;;6.03;2.17;;;23.10;89.50;;;;;;5075681;28;20032;-62
2021/12/16 10:25:48;;;;;;;9.48;2.60;;;23.10;89.50;;;;;;5075749;28;20431;-59
2021/12/16 10:28:23;;;;;;;5.50;2.95;;;23.10;89.40;;;;;;5075045;28;20528;-62
2021/12/16 10:31:34;;;;;;;7.45;2.78;;;23.10;89.40;;;;;;5075718;28;20112;-60
2021/12/16 10:34:08;;;;;;;7.43;2.65;;;23.00;89.50;;;;;;5062833;28;20055;-61
2021/12/16 10:36:45;;;;;;;6.78;3.03;;;23.00;89.50;;;;;;5075456;28;20548;-57
2021/12/16 10:39:23;;;;;;;9.15;2.53;;;23.00;89.30;;;;;;5075658;28;20037;-60
2021/12/16 10:41:53;;;;;;;5.05;2.38;;;23.00;89.30;;;;;;5075325;28;20025;-62
2021/12/16 10:44:22;;;;;;;5.47;2.67;;;23.00;89.30;;;;;;5075209;28;20029;-59
2021/12/16 10:46:54;;;;;;;6.80;2.22;;;22.90;89.20;;;;;;5075020;28;20056;-54
2021/12/16 10:49:25;;;;;;;5.95;2.30;;;22.90;89.10;;;;;;5075229;28;20024;-57
2021/12/16 10:51:56;;;;;;;7.10;2.27;;;23.00;88.90;;;;;;5074230;28;20025;-59
2021/12/16 10:54:37;;;;;;;6.47;2.17;;;22.90;89.10;;;;;;5074732;28;20102;-61
2021/12/16 10:57:13;;;;;;;4.65;2.22;;;22.90;89.00;;;;;;5074989;28;20094;-54
2021/12/16 10:59:50;;;;;;;6.28;2.70;;;22.90;88.60;;;;;;5074837;28;20040;-59
2021/12/16 11:02:19;;;;;;;6.18;2.10;;;22.90;89.00;;;;;;5075524;28;20012;-61
2021/12/16 11:04:50;;;;;;;6.43;2.53;;;22.90;89.00;;;;;;5075015;28;20432;-59
2021/12/16 11:07:38;;;;;;;8.23;2.47;;;22.90;88.80;;;;;;5074668;28;20436;-63
2021/12/16 11:10:27;;;;;;;3.28;1.70;;;22.90;88.80;;;;;;5074572;28;20108;-57
2021/12/16 11:13:01;;;;;;;6.07;1.90;;;22.90;88.50;;;;;;5074304;28;20104;-57
2021/12/16 11:15:52;;;;;;;5.95;2.40;;;22.90;88.60;;;;;;5074562;28;20332;-57
2021/12/16 11:18:21;;;;;;;5.03;1.92;;;22.90;88.40;;;;;;5074305;28;20036;-57
2021/12/16 11:20:57;;;;;;;8.07;2.50;;;22.90;88.50;;;;;;5073908;28;20024;-61
2021/12/16 11:23:38;;;;;;;6.38;2.00;;;22.90;88.40;;;;;;5073337;28;20463;-57
2021/12/16 11:26:15;;;;;;;3.95;1.95;;;22.90;88.50;;;;;;5074033;28;20028;-55
2021/12/16 11:28:53;;;;;;;7.07;2.45;;;22.90;88.40;;;;;;5073208;28;20025;-63
2021/12/16 11:31:24;;;;;;;5.45;2.53;;;22.80;88.30;;;;;;5074264;28;20020;-59
2021/12/16 11:33:58;;;;;;;7.35;1.83;;;22.80;88.10;;;;;;5074230;28;20029;-61
2021/12/16 11:36:36;;;;;;;3.97;2.40;;;22.80;88.20;;;;;;5074164;28;20104;-57
2021/12/16 11:39:03;;;;;;;5.05;2.25;;;22.90;88.30;;;;;;5073910;28;20115;-58
2021/12/16 11:41:39;;;;;;;4.75;2.10;;;22.90;88.20;;;;;;5073885;28;20104;-57
2021/12/16 11:44:09;;;;;;;4.82;1.80;;;22.80;88.40;;;;;;5072365;28;20111;-56
2021/12/16 11:46:58;;;;;;;8.65;2.17;;;22.90;88.20;;;;;;5074445;28;20025;-56
2021/12/16 11:49:35;;;;;;;5.28;2.13;;;22.80;88.00;;;;;;5074169;28;20020;-55
2021/12/16 11:52:10;;;;;;;4.13;1.83;;;22.80;88.10;;;;;;5073595;28;20048;-58
2021/12/16 11:54:46;;;;;;;3.28;1.70;;;22.80;88.10;;;;;;5073429;28;20160;-56
2021/12/16 11:57:16;;;;;;;4.60;2.38;;;22.80;88.00;;;;;;5073526;28;20024;-59
2021/12/16 11:59:46;;;;;;;4.35;1.83;;;22.80;88.00;;;;;;5073390;28;20125;-60
2021/12/16 12:02:33;;;;;;;5.70;1.98;;;22.80;88.00;;;;;;5073445;28;20085;-57
2021/12/16 12:05:30;;;;;;;4.88;1.90;;;22.80;88.00;;;;;;5073371;28;20020;-59
2021/12/16 12:08:08;;;;;;;5.63;2.28;;;22.80;87.90;;;;;;5073059;28;20028;-59
2021/12/16 12:11:06;;;;;;;3.45;1.85;;;22.80;87.90;;;;;;5073605;28;20438;-57
2021/12/16 12:13:39;;;;;;;3.90;2.05;;;22.80;87.90;;;;;;5060974;28;20059;-58
2021/12/16 12:16:15;;;;;;;4.22;1.83;;;22.80;88.00;;;;;;5073065;28;20012;-59
2021/12/16 12:18:44;;;;;;;6.38;2.05;;;22.70;87.70;;;;;;5073140;28;20080;-58
2021/12/16 12:21:38;;;;;;;4.88;1.85;;;22.70;87.60;;;;;;5071517;28;20443;-57
2021/12/16 12:24:16;;;;;;;3.63;1.73;;;22.70;87.70;;;;;;5073065;28;20162;-58
2021/12/16 12:27:05;;;;;;;3.65;1.70;;;22.70;87.80;;;;;;5073275;28;20024;-58
2021/12/16 12:29:46;;;;;;;5.32;1.83;;;22.70;87.70;;;;;;5071885;28;20020;-60
2021/12/16 12:32:24;;;;;;;5.05;2.40;;;22.70;87.50;;;;;;5072631;28;20031;-58
2021/12/16 12:34:59;;;;;;;5.72;2.05;;;22.70;87.60;;;;;;5072575;28;20024;-61
2021/12/16 12:37:31;;;;;;;5.05;2.08;;;22.80;88.20;;;;;;5073250;28;20025;-58
2021/12/16 12:40:20;;;;;;;5.70;2.08;;;22.70;87.60;;;;;;5071824;28;20154;-61
2021/12/16 12:42:49;;;;;;;5.85;2.00;;;22.70;87.60;;;;;;5073250;28;20012;-57
2021/12/16 12:45:20;;;;;;;3.72;1.60;;;22.70;88.30;;;;;;5072961;28;20459;-57
2021/12/16 12:47:52;;;;;;;5.45;2.00;;;22.70;87.70;;;;;;5073149;28;20035;-58
2021/12/16 12:50:25;;;;;;;3.85;1.85;;;22.70;88.10;;;;;;5072886;28;20154;-58
2021/12/16 12:52:54;;;;;;;2.78;1.42;;;22.60;87.80;;;;;;5072736;28;20032;-55
2021/12/16 12:55:33;;;;;;;3.55;1.92;;;22.70;87.90;;;;;;5073037;28;20489;-58
2021/12/16 12:58:08;;;;;;;4.72;1.90;;;22.60;87.90;;;;;;5072494;28;20399;-57
2021/12/16 13:00:44;;;;;;;5.25;1.95;;;22.70;88.00;;;;;;5072935;28;20016;-60
2021/12/16 13:03:22;;;;;;;4.32;1.85;;;22.60;87.80;;;;;;5072553;28;20089;-54
2021/12/16 13:06:04;;;;;;;5.55;2.10;;;22.60;88.10;;;;;;5072641;28;20119;-58
2021/12/16 13:08:46;;;;;;;3.08;1.42;;;22.60;88.10;;;;;;5072862;28;20021;-59
2021/12/16 13:11:20;;;;;;;4.10;1.63;;;22.50;88.20;;;;;;5072846;28;20371;-53
2021/12/16 13:32:42;;;;;;;4.95;2.08;;;22.40;88.80;;;;;;5070414;28;20423;-59
2021/12/16 13:34:43;;;;;;;4.50;1.65;;;22.40;88.80;;;;;;5063190;28;20432;-55
2021/12/16 13:37:23;;;;;;;5.97;2.10;;;22.40;88.80;;;;;;5072596;28;20386;-58
2021/12/16 13:39:58;;;;;;;4.63;1.83;;;22.40;88.80;;;;;;5072263;28;20037;-58
2021/12/16 13:42:26;;;;;;;5.55;2.20;;;22.40;88.70;;;;;;5072475;28;20056;-58
2021/12/16 13:45:07;;;;;;;3.80;1.52;;;22.40;88.80;;;;;;5072436;28;20481;-59
2021/12/16 14:10:21;;;;;;;5.43;2.33;;;22.30;88.70;;;;;;5075766;28;20025;-55
2021/12/16 14:39:14;;;;;;;5.03;1.60;;;22.30;88.50;;;;;;5075730;28;20028;-52
2021/12/16 14:45:18;;;;;;;6.07;1.80;;;22.30;88.50;;;;;;5033087;28;20044;-58
2021/12/16 14:50:46;;;;;;;5.93;1.90;;;22.30;88.30;;;;;;5073877;28;20021;-59
2021/12/16 14:53:26;;;;;;;5.03;1.88;;;22.30;88.40;;;;;;5074944;28;20048;-53
2021/12/16 14:55:58;;;;;;;6.18;2.20;;;22.30;88.30;;;;;;5074901;28;20032;-55
2021/12/16 14:58:26;;;;;;;3.97;1.75;;;22.30;88.30;;;;;;5074874;28;20465;-58
2021/12/16 15:01:09;;;;;;;4.75;1.80;;;22.30;88.20;;;;;;5074905;28;20044;-59
2021/12/16 15:03:40;;;;;;;6.88;2.00;;;22.30;88.20;;;;;;5075149;28;20104;-59
2021/12/16 15:06:16;;;;;;;5.10;1.83;;;22.30;88.90;;;;;;5074337;28;20028;-60
2021/12/16 15:08:54;;;;;;;2.55;1.30;;;22.30;88.30;;;;;;5074995;28;20051;-57
2021/12/16 15:11:39;;;;;;;3.85;1.90;;;22.30;88.30;;;;;;5074935;28;20107;-57
2021/12/16 15:14:20;;;;;;;6.22;2.30;;;22.30;88.20;;;;;;5074379;28;20052;-57
2021/12/16 15:39:16;;;;;;;5.50;1.70;;;22.20;88.10;;;;;;5074272;28;20029;-59
2021/12/16 15:44:29;;;;;;;7.47;2.10;;;22.20;88.10;;;;;;5074514;28;20048;-58
2021/12/16 15:46:56;;;;;;;3.60;1.65;;;22.20;88.10;;;;;;5074090;28;20021;-57
2021/12/16 15:49:24;;;;;;;3.92;1.60;;;22.20;88.10;;;;;;5073981;28;20032;-58
2021/12/16 15:51:53;;;;;;;3.85;1.58;;;22.20;88.10;;;;;;5074179;28;20042;-55
2021/12/16 15:54:21;;;;;;;5.68;2.10;;;22.20;88.10;;;;;;5073846;28;20052;-56
2021/12/16 15:56:50;;;;;;;4.32;1.70;;;22.20;88.10;;;;;;5072800;28;20059;-59
2021/12/16 15:59:19;;;;;;;5.88;2.03;;;22.20;88.10;;;;;;5074137;28;20525;-55
2021/12/16 16:01:51;;;;;;;5.28;1.80;;;22.20;88.10;;;;;;5073836;28;20025;-58
2021/12/16 16:04:26;;;;;;;4.75;1.98;;;22.20;88.10;;;;;;5073979;28;20475;-58
2021/12/16 16:07:04;;;;;;;6.53;1.98;;;22.20;88.10;;;;;;5073691;28;20040;-61
2021/12/16 16:09:50;;;;;;;4.53;1.95;;;22.20;88.10;;;;;;5073164;28;20033;-60
2021/12/16 16:12:23;;;;;;;4.15;1.70;;;22.20;88.10;;;;;;5073631;28;20039;-58
2021/12/16 16:14:51;;;;;;;5.97;1.90;;;22.20;88.10;;;;;;5073368;28;20095;-57
2021/12/16 16:17:23;;;;;;;3.58;1.67;;;22.10;88.10;;;;;;5073547;28;20025;-59
2021/12/16 16:19:54;;;;;;;5.93;1.50;;;22.20;88.20;;;;;;5073189;28;20120;-59
2021/12/16 16:22:21;;;;;;;5.43;1.98;;;22.10;88.20;;;;;;5073592;28;20471;-58
2021/12/16 16:24:52;;;;;;;4.78;1.63;;;22.20;88.30;;;;;;5073613;28;20039;-59
2021/12/16 16:27:26;;;;;;;5.07;1.67;;;22.10;88.30;;;;;;5073490;28;20070;-55
2021/12/16 16:29:57;;;;;;;6.20;1.70;;;22.10;88.30;;;;;;5073341;28;20028;-57
2021/12/16 16:32:49;;;;;;;2.97;1.45;;;22.10;88.40;;;;;;5073729;28;20016;-58
2021/12/16 16:35:16;;;;;;;6.63;1.75;;;22.10;88.40;;;;;;5073027;28;20025;-61
2021/12/16 16:37:43;;;;;;;6.80;1.98;;;22.10;88.50;;;;;;5073035;28;20040;-59
2021/12/16 16:40:13;;;;;;;9.63;2.67;;;22.10;88.50;;;;;;5072912;28;20040;-57
2021/12/16 16:42:43;;;;;;;5.40;2.40;;;22.10;88.50;;;;;;5073187;28;20024;-57
2021/12/16 16:45:29;;;;;;;4.35;1.70;;;22.10;88.60;;;;;;5072884;28;20028;-56
2021/12/16 16:48:06;;;;;;;3.95;1.48;;;22.10;88.70;;;;;;5072794;28;20035;-59
2021/12/16 16:50:36;;;;;;;4.50;1.90;;;22.10;88.70;;;;;;5072789;28;20025;-58
2021/12/16 16:53:03;;;;;;;5.53;1.65;;;22.00;88.70;;;;;;5072948;28;20040;-56
2021/12/16 16:55:33;;;;;;;5.78;2.03;;;22.00;88.70;;;;;;5073189;28;20027;-57
2021/12/16 16:58:09;;;;;;;9.80;2.33;;;22.00;88.70;;;;;;5072559;28;20028;-58
2021/12/16 17:00:46;;;;;;;3.97;1.67;;;22.00;88.70;;;;;;5073103;28;20090;-60
2021/12/16 17:03:20;;;;;;;4.45;1.70;;;22.00;88.70;;;;;;5072971;28;20471;-59
2021/12/16 17:05:57;;;;;;;5.80;2.30;;;22.00;88.70;;;;;;5072901;28;20052;-59
2021/12/16 17:08:40;;;;;;;5.25;1.60;;;22.00;88.70;;;;;;5072888;28;20046;-59
2021/12/16 17:11:11;;;;;;;5.10;2.05;;;22.00;88.70;;;;;;5072868;28;20048;-58
2021/12/16 17:18:55;;;;;;;6.40;2.30;;;22.00;88.80;;;;;;5072671;28;20055;-55
2021/12/16 17:21:47;;;;;;;2.92;1.50;;;22.00;88.90;;;;;;5074443;28;20021;-56
2021/12/16 17:24:21;;;;;;;9.82;2.35;;;22.00;88.90;;;;;;5076411;28;20033;-55
2021/12/16 17:26:53;;;;;;;5.70;2.10;;;22.00;88.90;;;;;;5075406;28;20028;-57
2021/12/16 17:29:25;;;;;;;5.07;1.90;;;22.00;89.00;;;;;;5076758;28;20021;-58
2021/12/16 17:32:06;;;;;;;5.30;1.70;;;21.90;89.00;;;;;;5076667;28;20027;-58